Girdwood, Alaska
Current Conditions -  °F | °C
As of 8:28 AM on Thursday 23 Oct 2014 (Local Time) from PATO Reporting Station
Overcast Overcast  
Wind Chill: 20°   Ceiling: 300
Heat Index: 20°   Visibility: 10mi
Dew Point: 18°   Wind: 0mph
Humidity: 92%   Direction: NA
Pressure: 29.67"   Gusts: NA
Location:  60.95°N, 149.16°W
Report Text: PATO 231628Z AUTO 00000KT 10SM OVC003 M07/M08 A2967 RMK AO2 CIG 002V005 I1000 T10671078 TSNO
Loading
Personal Weather Stations






























Interactive Weather Map
Tropical Storm Tracking
New forecast layout! Learn more

10-Day Weather Forecast

Advertisements
Track Severe Weather on mobile